sensor_id;sensor_type;location;lat;lon;timestamp;P1;durP1;ratioP1;P2;durP2;ratioP2
73869;SDS011;64924;42.140;24.762;2023-05-07T00:01:07;16.65;;;6.45;;
73869;SDS011;64924;42.140;24.762;2023-05-07T00:03:32;12.07;;;6.20;;
73869;SDS011;64924;42.140;24.762;2023-05-07T00:05:58;8.88;;;6.35;;
73869;SDS011;64924;42.140;24.762;2023-05-07T00:08:23;9.30;;;6.15;;
73869;SDS011;64924;42.140;24.762;2023-05-07T00:10:49;12.65;;;6.00;;
73869;SDS011;64924;42.140;24.762;2023-05-07T00:13:14;12.30;;;5.80;;
73869;SDS011;64924;42.140;24.762;2023-05-07T00:15:40;8.63;;;5.63;;
73869;SDS011;64924;42.140;24.762;2023-05-07T00:18:06;11.07;;;5.80;;
73869;SDS011;64924;42.140;24.762;2023-05-07T00:20:31;10.10;;;5.57;;
73869;SDS011;64924;42.140;24.762;2023-05-07T00:22:57;8.68;;;5.85;;
73869;SDS011;64924;42.140;24.762;2023-05-07T00:25:22;10.95;;;5.32;;
73869;SDS011;64924;42.140;24.762;2023-05-07T00:27:48;8.75;;;5.50;;
73869;SDS011;64924;42.140;24.762;2023-05-07T00:30:13;7.20;;;5.50;;
73869;SDS011;64924;42.140;24.762;2023-05-07T00:32:39;10.18;;;5.45;;
73869;SDS011;64924;42.140;24.762;2023-05-07T00:35:10;12.15;;;5.30;;
73869;SDS011;64924;42.140;24.762;2023-05-07T00:37:37;8.88;;;5.97;;
73869;SDS011;64924;42.140;24.762;2023-05-07T00:40:02;8.70;;;5.65;;
73869;SDS011;64924;42.140;24.762;2023-05-07T00:42:32;7.65;;;5.88;;
73869;SDS011;64924;42.140;24.762;2023-05-07T00:44:57;8.52;;;5.65;;
73869;SDS011;64924;42.140;24.762;2023-05-07T00:47:23;7.45;;;6.00;;
73869;SDS011;64924;42.140;24.762;2023-05-07T00:49:50;8.55;;;5.75;;
73869;SDS011;64924;42.140;24.762;2023-05-07T00:52:19;8.13;;;5.35;;
73869;SDS011;64924;42.140;24.762;2023-05-07T00:54:46;8.45;;;5.93;;
73869;SDS011;64924;42.140;24.762;2023-05-07T00:57:12;13.38;;;5.85;;
73869;SDS011;64924;42.140;24.762;2023-05-07T00:59:50;7.38;;;5.72;;
73869;SDS011;64924;42.140;24.762;2023-05-07T01:02:17;9.50;;;5.88;;
73869;SDS011;64924;42.140;24.762;2023-05-07T01:04:42;12.32;;;6.38;;
73869;SDS011;64924;42.140;24.762;2023-05-07T01:07:07;7.20;;;5.57;;
73869;SDS011;64924;42.140;24.762;2023-05-07T01:09:42;10.00;;;5.70;;
73869;SDS011;64924;42.140;24.762;2023-05-07T01:12:07;7.72;;;5.68;;
73869;SDS011;64924;42.140;24.762;2023-05-07T01:14:34;9.20;;;6.00;;
73869;SDS011;64924;42.140;24.762;2023-05-07T01:17:02;8.38;;;5.97;;
73869;SDS011;64924;42.140;24.762;2023-05-07T01:19:28;10.30;;;6.20;;
73869;SDS011;64924;42.140;24.762;2023-05-07T01:21:55;7.30;;;5.97;;
73869;SDS011;64924;42.140;24.762;2023-05-07T01:24:28;11.70;;;5.50;;
73869;SDS011;64924;42.140;24.762;2023-05-07T01:26:54;9.63;;;6.32;;
73869;SDS011;64924;42.140;24.762;2023-05-07T01:29:20;8.23;;;6.38;;
73869;SDS011;64924;42.140;24.762;2023-05-07T01:32:03;9.10;;;6.75;;
73869;SDS011;64924;42.140;24.762;2023-05-07T01:34:30;11.90;;;6.63;;
73869;SDS011;64924;42.140;24.762;2023-05-07T01:36:57;9.65;;;6.28;;
73869;SDS011;64924;42.140;24.762;2023-05-07T01:39:25;11.90;;;6.22;;
73869;SDS011;64924;42.140;24.762;2023-05-07T01:41:53;10.55;;;6.72;;
73869;SDS011;64924;42.140;24.762;2023-05-07T01:44:20;10.27;;;6.22;;
73869;SDS011;64924;42.140;24.762;2023-05-07T01:46:46;13.25;;;6.22;;
73869;SDS011;64924;42.140;24.762;2023-05-07T01:49:13;8.73;;;6.30;;
73869;SDS011;64924;42.140;24.762;2023-05-07T01:51:38;7.28;;;5.43;;
73869;SDS011;64924;42.140;24.762;2023-05-07T01:54:05;8.43;;;5.88;;
73869;SDS011;64924;42.140;24.762;2023-05-07T01:56:31;9.07;;;6.25;;
73869;SDS011;64924;42.140;24.762;2023-05-07T01:58:57;11.40;;;6.82;;
73869;SDS011;64924;42.140;24.762;2023-05-07T02:01:22;8.32;;;6.90;;
73869;SDS011;64924;42.140;24.762;2023-05-07T02:03:48;11.45;;;7.93;;
73869;SDS011;64924;42.140;24.762;2023-05-07T02:06:14;12.52;;;8.93;;
73869;SDS011;64924;42.140;24.762;2023-05-07T02:08:39;11.95;;;8.45;;
73869;SDS011;64924;42.140;24.762;2023-05-07T02:11:05;11.20;;;7.38;;
73869;SDS011;64924;42.140;24.762;2023-05-07T02:13:31;10.77;;;7.22;;
73869;SDS011;64924;42.140;24.762;2023-05-07T02:15:57;9.48;;;7.18;;
73869;SDS011;64924;42.140;24.762;2023-05-07T02:18:23;12.00;;;7.55;;
73869;SDS011;64924;42.140;24.762;2023-05-07T02:20:48;12.48;;;7.32;;
73869;SDS011;64924;42.140;24.762;2023-05-07T02:23:14;10.02;;;7.20;;
73869;SDS011;64924;42.140;24.762;2023-05-07T02:25:39;14.23;;;7.90;;
73869;SDS011;64924;42.140;24.762;2023-05-07T02:28:05;14.68;;;8.10;;
73869;SDS011;64924;42.140;24.762;2023-05-07T02:30:31;12.90;;;7.25;;
73869;SDS011;64924;42.140;24.762;2023-05-07T02:32:57;11.88;;;8.80;;
73869;SDS011;64924;42.140;24.762;2023-05-07T02:35:23;10.10;;;7.60;;
73869;SDS011;64924;42.140;24.762;2023-05-07T02:37:49;11.23;;;8.32;;
73869;SDS011;64924;42.140;24.762;2023-05-07T02:40:15;9.48;;;7.63;;
73869;SDS011;64924;42.140;24.762;2023-05-07T02:42:40;12.57;;;7.60;;
73869;SDS011;64924;42.140;24.762;2023-05-07T02:45:06;10.07;;;7.05;;
73869;SDS011;64924;42.140;24.762;2023-05-07T02:47:32;11.73;;;7.47;;
73869;SDS011;64924;42.140;24.762;2023-05-07T02:49:57;12.45;;;8.30;;
73869;SDS011;64924;42.140;24.762;2023-05-07T02:52:23;10.65;;;7.40;;
73869;SDS011;64924;42.140;24.762;2023-05-07T02:54:48;12.00;;;7.18;;
73869;SDS011;64924;42.140;24.762;2023-05-07T02:57:14;10.60;;;7.22;;
73869;SDS011;64924;42.140;24.762;2023-05-07T02:59:40;13.48;;;8.07;;
73869;SDS011;64924;42.140;24.762;2023-05-07T03:02:06;13.57;;;8.38;;
73869;SDS011;64924;42.140;24.762;2023-05-07T03:04:32;9.05;;;7.28;;
73869;SDS011;64924;42.140;24.762;2023-05-07T03:06:57;10.02;;;7.80;;
73869;SDS011;64924;42.140;24.762;2023-05-07T03:09:23;10.88;;;7.40;;
73869;SDS011;64924;42.140;24.762;2023-05-07T03:11:48;11.00;;;7.65;;
73869;SDS011;64924;42.140;24.762;2023-05-07T03:14:14;11.57;;;8.82;;
73869;SDS011;64924;42.140;24.762;2023-05-07T03:16:39;13.68;;;7.95;;
73869;SDS011;64924;42.140;24.762;2023-05-07T03:19:05;11.38;;;7.60;;
73869;SDS011;64924;42.140;24.762;2023-05-07T03:21:30;15.32;;;8.60;;
73869;SDS011;64924;42.140;24.762;2023-05-07T03:23:58;14.50;;;9.05;;
73869;SDS011;64924;42.140;24.762;2023-05-07T03:26:24;12.48;;;8.05;;
73869;SDS011;64924;42.140;24.762;2023-05-07T03:28:50;12.73;;;8.50;;
73869;SDS011;64924;42.140;24.762;2023-05-07T03:31:16;13.25;;;8.80;;
73869;SDS011;64924;42.140;24.762;2023-05-07T03:33:51;10.93;;;8.18;;
73869;SDS011;64924;42.140;24.762;2023-05-07T03:36:18;12.82;;;7.10;;
73869;SDS011;64924;42.140;24.762;2023-05-07T03:38:44;12.07;;;7.70;;
73869;SDS011;64924;42.140;24.762;2023-05-07T03:41:09;11.20;;;6.47;;
73869;SDS011;64924;42.140;24.762;2023-05-07T03:43:35;12.90;;;7.13;;
73869;SDS011;64924;42.140;24.762;2023-05-07T03:46:00;9.63;;;6.32;;
73869;SDS011;64924;42.140;24.762;2023-05-07T03:48:26;13.23;;;7.13;;
73869;SDS011;64924;42.140;24.762;2023-05-07T03:50:51;11.75;;;7.10;;
73869;SDS011;64924;42.140;24.762;2023-05-07T03:53:17;9.93;;;6.78;;
73869;SDS011;64924;42.140;24.762;2023-05-07T03:55:42;8.77;;;6.25;;
73869;SDS011;64924;42.140;24.762;2023-05-07T03:58:08;10.60;;;5.93;;
73869;SDS011;64924;42.140;24.762;2023-05-07T04:00:33;11.18;;;7.20;;
73869;SDS011;64924;42.140;24.762;2023-05-07T04:03:03;12.38;;;6.75;;
73869;SDS011;64924;42.140;24.762;2023-05-07T04:05:30;12.93;;;6.63;;
73869;SDS011;64924;42.140;24.762;2023-05-07T04:07:59;9.73;;;7.05;;
73869;SDS011;64924;42.140;24.762;2023-05-07T04:10:25;7.97;;;6.53;;
73869;SDS011;64924;42.140;24.762;2023-05-07T04:12:53;8.90;;;6.40;;
73869;SDS011;64924;42.140;24.762;2023-05-07T04:15:18;12.02;;;7.13;;
73869;SDS011;64924;42.140;24.762;2023-05-07T04:17:44;11.25;;;7.00;;
73869;SDS011;64924;42.140;24.762;2023-05-07T04:20:10;12.25;;;7.63;;
73869;SDS011;64924;42.140;24.762;2023-05-07T04:22:39;7.28;;;5.30;;
73869;SDS011;64924;42.140;24.762;2023-05-07T04:25:04;10.95;;;6.55;;
73869;SDS011;64924;42.140;24.762;2023-05-07T04:27:30;8.50;;;5.72;;
73869;SDS011;64924;42.140;24.762;2023-05-07T04:29:56;7.65;;;6.45;;
73869;SDS011;64924;42.140;24.762;2023-05-07T04:32:22;6.43;;;5.78;;
73869;SDS011;64924;42.140;24.762;2023-05-07T04:34:50;8.43;;;6.38;;
73869;SDS011;64924;42.140;24.762;2023-05-07T04:37:15;7.32;;;6.32;;
73869;SDS011;64924;42.140;24.762;2023-05-07T04:39:41;13.35;;;6.60;;
73869;SDS011;64924;42.140;24.762;2023-05-07T04:42:06;7.75;;;5.65;;
73869;SDS011;64924;42.140;24.762;2023-05-07T04:44:34;10.43;;;6.07;;
73869;SDS011;64924;42.140;24.762;2023-05-07T04:47:00;9.95;;;6.50;;
73869;SDS011;64924;42.140;24.762;2023-05-07T04:49:26;11.57;;;6.55;;
73869;SDS011;64924;42.140;24.762;2023-05-07T04:51:51;8.75;;;5.90;;
73869;SDS011;64924;42.140;24.762;2023-05-07T04:54:17;10.63;;;6.65;;
73869;SDS011;64924;42.140;24.762;2023-05-07T04:56:42;7.55;;;5.70;;
73869;SDS011;64924;42.140;24.762;2023-05-07T04:59:08;9.50;;;6.07;;
73869;SDS011;64924;42.140;24.762;2023-05-07T05:01:33;7.68;;;5.82;;
73869;SDS011;64924;42.140;24.762;2023-05-07T05:03:59;7.75;;;5.63;;
73869;SDS011;64924;42.140;24.762;2023-05-07T05:06:25;6.65;;;5.60;;
73869;SDS011;64924;42.140;24.762;2023-05-07T05:08:51;8.75;;;5.35;;
73869;SDS011;64924;42.140;24.762;2023-05-07T05:11:16;8.50;;;6.00;;
73869;SDS011;64924;42.140;24.762;2023-05-07T05:13:42;8.27;;;5.50;;
73869;SDS011;64924;42.140;24.762;2023-05-07T05:16:07;8.13;;;5.07;;
73869;SDS011;64924;42.140;24.762;2023-05-07T05:18:33;8.90;;;5.85;;
73869;SDS011;64924;42.140;24.762;2023-05-07T05:20:58;12.00;;;6.03;;
73869;SDS011;64924;42.140;24.762;2023-05-07T05:23:24;8.80;;;5.55;;
73869;SDS011;64924;42.140;24.762;2023-05-07T05:25:49;10.85;;;6.00;;
73869;SDS011;64924;42.140;24.762;2023-05-07T05:28:15;7.05;;;5.70;;
73869;SDS011;64924;42.140;24.762;2023-05-07T05:30:40;13.05;;;6.10;;
73869;SDS011;64924;42.140;24.762;2023-05-07T05:33:05;7.97;;;5.38;;
73869;SDS011;64924;42.140;24.762;2023-05-07T05:35:31;9.15;;;5.97;;
73869;SDS011;64924;42.140;24.762;2023-05-07T05:37:57;9.63;;;5.40;;
73869;SDS011;64924;42.140;24.762;2023-05-07T05:40:22;10.07;;;4.85;;
73869;SDS011;64924;42.140;24.762;2023-05-07T05:42:47;8.75;;;5.50;;
73869;SDS011;64924;42.140;24.762;2023-05-07T05:45:13;7.55;;;4.95;;
73869;SDS011;64924;42.140;24.762;2023-05-07T05:47:38;7.38;;;5.18;;
73869;SDS011;64924;42.140;24.762;2023-05-07T05:50:05;10.63;;;5.00;;
73869;SDS011;64924;42.140;24.762;2023-05-07T05:52:31;8.20;;;5.03;;
73869;SDS011;64924;42.140;24.762;2023-05-07T05:54:57;6.68;;;5.22;;
73869;SDS011;64924;42.140;24.762;2023-05-07T05:57:22;13.50;;;5.70;;
73869;SDS011;64924;42.140;24.762;2023-05-07T05:59:48;8.82;;;5.50;;
73869;SDS011;64924;42.140;24.762;2023-05-07T06:02:13;8.27;;;4.75;;
73869;SDS011;64924;42.140;24.762;2023-05-07T06:04:39;6.65;;;5.20;;
73869;SDS011;64924;42.140;24.762;2023-05-07T06:07:04;9.05;;;4.93;;
73869;SDS011;64924;42.140;24.762;2023-05-07T06:09:30;8.70;;;4.57;;
73869;SDS011;64924;42.140;24.762;2023-05-07T06:11:56;11.90;;;5.57;;
73869;SDS011;64924;42.140;24.762;2023-05-07T06:14:21;8.10;;;5.82;;
73869;SDS011;64924;42.140;24.762;2023-05-07T06:16:46;7.25;;;4.38;;
73869;SDS011;64924;42.140;24.762;2023-05-07T06:19:12;7.70;;;5.13;;
73869;SDS011;64924;42.140;24.762;2023-05-07T06:21:38;7.47;;;5.38;;
73869;SDS011;64924;42.140;24.762;2023-05-07T06:24:04;7.30;;;5.00;;
73869;SDS011;64924;42.140;24.762;2023-05-07T06:26:30;8.88;;;5.05;;
73869;SDS011;64924;42.140;24.762;2023-05-07T06:28:55;9.23;;;5.03;;
73869;SDS011;64924;42.140;24.762;2023-05-07T06:31:21;6.13;;;4.50;;
73869;SDS011;64924;42.140;24.762;2023-05-07T06:33:46;6.85;;;5.38;;
73869;SDS011;64924;42.140;24.762;2023-05-07T06:36:13;8.65;;;4.85;;
73869;SDS011;64924;42.140;24.762;2023-05-07T06:38:38;11.13;;;5.30;;
73869;SDS011;64924;42.140;24.762;2023-05-07T06:41:05;8.65;;;5.85;;
73869;SDS011;64924;42.140;24.762;2023-05-07T06:43:31;10.27;;;6.03;;
73869;SDS011;64924;42.140;24.762;2023-05-07T06:45:56;9.35;;;6.20;;
73869;SDS011;64924;42.140;24.762;2023-05-07T06:48:22;7.72;;;6.40;;
73869;SDS011;64924;42.140;24.762;2023-05-07T06:50:47;11.23;;;6.68;;
73869;SDS011;64924;42.140;24.762;2023-05-07T06:53:13;8.73;;;5.25;;
73869;SDS011;64924;42.140;24.762;2023-05-07T06:55:38;8.48;;;5.25;;
73869;SDS011;64924;42.140;24.762;2023-05-07T06:58:04;13.48;;;6.40;;
73869;SDS011;64924;42.140;24.762;2023-05-07T07:00:31;7.55;;;5.82;;
73869;SDS011;64924;42.140;24.762;2023-05-07T07:02:56;7.95;;;5.90;;
73869;SDS011;64924;42.140;24.762;2023-05-07T07:05:22;13.65;;;5.57;;
73869;SDS011;64924;42.140;24.762;2023-05-07T07:07:47;9.85;;;5.75;;
73869;SDS011;64924;42.140;24.762;2023-05-07T07:10:20;11.88;;;5.70;;
73869;SDS011;64924;42.140;24.762;2023-05-07T07:12:46;6.82;;;5.50;;
73869;SDS011;64924;42.140;24.762;2023-05-07T07:15:11;9.35;;;5.78;;
73869;SDS011;64924;42.140;24.762;2023-05-07T07:17:38;7.93;;;5.90;;
73869;SDS011;64924;42.140;24.762;2023-05-07T07:20:03;6.85;;;5.40;;
73869;SDS011;64924;42.140;24.762;2023-05-07T07:22:30;8.02;;;5.45;;
73869;SDS011;64924;42.140;24.762;2023-05-07T07:24:55;6.90;;;5.90;;
73869;SDS011;64924;42.140;24.762;2023-05-07T07:27:21;6.75;;;5.55;;
73869;SDS011;64924;42.140;24.762;2023-05-07T07:29:46;8.75;;;5.15;;
73869;SDS011;64924;42.140;24.762;2023-05-07T07:32:12;8.80;;;6.25;;
73869;SDS011;64924;42.140;24.762;2023-05-07T07:34:37;7.38;;;5.38;;
73869;SDS011;64924;42.140;24.762;2023-05-07T07:37:03;8.98;;;6.68;;
73869;SDS011;64924;42.140;24.762;2023-05-07T07:39:33;7.35;;;5.72;;
73869;SDS011;64924;42.140;24.762;2023-05-07T07:41:59;6.88;;;5.75;;
73869;SDS011;64924;42.140;24.762;2023-05-07T07:44:25;8.05;;;5.38;;
73869;SDS011;64924;42.140;24.762;2023-05-07T07:46:51;10.13;;;6.20;;
73869;SDS011;64924;42.140;24.762;2023-05-07T07:49:16;9.18;;;5.47;;
73869;SDS011;64924;42.140;24.762;2023-05-07T07:51:42;10.48;;;6.18;;
73869;SDS011;64924;42.140;24.762;2023-05-07T07:54:08;8.73;;;6.00;;
73869;SDS011;64924;42.140;24.762;2023-05-07T07:56:33;9.13;;;5.57;;
73869;SDS011;64924;42.140;24.762;2023-05-07T07:58:59;6.70;;;5.30;;
73869;SDS011;64924;42.140;24.762;2023-05-07T08:01:25;10.43;;;5.93;;
73869;SDS011;64924;42.140;24.762;2023-05-07T08:03:51;8.82;;;5.38;;
73869;SDS011;64924;42.140;24.762;2023-05-07T08:06:16;9.27;;;5.38;;
73869;SDS011;64924;42.140;24.762;2023-05-07T08:08:42;8.50;;;6.03;;
73869;SDS011;64924;42.140;24.762;2023-05-07T08:11:08;8.88;;;4.88;;
73869;SDS011;64924;42.140;24.762;2023-05-07T08:13:33;10.50;;;5.40;;
73869;SDS011;64924;42.140;24.762;2023-05-07T08:15:59;9.20;;;4.93;;
73869;SDS011;64924;42.140;24.762;2023-05-07T08:18:25;9.65;;;5.30;;
73869;SDS011;64924;42.140;24.762;2023-05-07T08:20:51;7.10;;;4.43;;
73869;SDS011;64924;42.140;24.762;2023-05-07T08:23:16;10.55;;;4.38;;
73869;SDS011;64924;42.140;24.762;2023-05-07T08:25:42;10.35;;;4.38;;
73869;SDS011;64924;42.140;24.762;2023-05-07T08:28:07;7.88;;;5.18;;
73869;SDS011;64924;42.140;24.762;2023-05-07T08:30:33;7.55;;;4.10;;
73869;SDS011;64924;42.140;24.762;2023-05-07T08:32:59;7.60;;;2.72;;
73869;SDS011;64924;42.140;24.762;2023-05-07T08:35:25;6.70;;;3.40;;
73869;SDS011;64924;42.140;24.762;2023-05-07T08:37:52;9.38;;;3.40;;
73869;SDS011;64924;42.140;24.762;2023-05-07T08:40:17;11.25;;;3.63;;
73869;SDS011;64924;42.140;24.762;2023-05-07T08:42:43;9.75;;;3.53;;
73869;SDS011;64924;42.140;24.762;2023-05-07T08:45:10;8.32;;;4.03;;
73869;SDS011;64924;42.140;24.762;2023-05-07T08:47:56;6.20;;;3.65;;
73869;SDS011;64924;42.140;24.762;2023-05-07T08:50:24;9.65;;;4.18;;
73869;SDS011;64924;42.140;24.762;2023-05-07T08:52:50;5.72;;;4.15;;
73869;SDS011;64924;42.140;24.762;2023-05-07T08:55:16;7.15;;;3.38;;
73869;SDS011;64924;42.140;24.762;2023-05-07T08:57:42;8.45;;;3.63;;
73869;SDS011;64924;42.140;24.762;2023-05-07T09:00:08;5.10;;;3.72;;
73869;SDS011;64924;42.140;24.762;2023-05-07T09:02:35;8.95;;;3.72;;
73869;SDS011;64924;42.140;24.762;2023-05-07T09:05:01;6.35;;;3.47;;
73869;SDS011;64924;42.140;24.762;2023-05-07T09:07:27;5.05;;;2.65;;
73869;SDS011;64924;42.140;24.762;2023-05-07T09:09:53;7.28;;;3.17;;
73869;SDS011;64924;42.140;24.762;2023-05-07T09:12:20;5.57;;;3.40;;
73869;SDS011;64924;42.140;24.762;2023-05-07T09:14:46;10.35;;;5.47;;
73869;SDS011;64924;42.140;24.762;2023-05-07T09:17:12;4.38;;;3.30;;
73869;SDS011;64924;42.140;24.762;2023-05-07T09:19:38;5.50;;;3.05;;
73869;SDS011;64924;42.140;24.762;2023-05-07T09:22:04;5.13;;;2.10;;
73869;SDS011;64924;42.140;24.762;2023-05-07T09:24:32;3.67;;;2.40;;
73869;SDS011;64924;42.140;24.762;2023-05-07T09:27:03;7.50;;;2.78;;
73869;SDS011;64924;42.140;24.762;2023-05-07T09:29:29;7.55;;;2.97;;
73869;SDS011;64924;42.140;24.762;2023-05-07T09:32:00;4.88;;;3.90;;
73869;SDS011;64924;42.140;24.762;2023-05-07T09:34:34;6.45;;;3.60;;
73869;SDS011;64924;42.140;24.762;2023-05-07T09:37:04;4.45;;;2.88;;
73869;SDS011;64924;42.140;24.762;2023-05-07T09:39:45;11.18;;;3.30;;
73869;SDS011;64924;42.140;24.762;2023-05-07T09:42:12;3.88;;;3.35;;
73869;SDS011;64924;42.140;24.762;2023-05-07T09:44:39;6.82;;;3.70;;
73869;SDS011;64924;42.140;24.762;2023-05-07T09:47:06;9.15;;;3.55;;
73869;SDS011;64924;42.140;24.762;2023-05-07T09:49:36;5.07;;;2.92;;
73869;SDS011;64924;42.140;24.762;2023-05-07T09:52:07;10.10;;;3.65;;
73869;SDS011;64924;42.140;24.762;2023-05-07T09:54:34;7.85;;;3.20;;
73869;SDS011;64924;42.140;24.762;2023-05-07T09:57:02;6.32;;;3.17;;
73869;SDS011;64924;42.140;24.762;2023-05-07T09:59:29;5.90;;;3.10;;
73869;SDS011;64924;42.140;24.762;2023-05-07T10:01:57;4.72;;;3.10;;
73869;SDS011;64924;42.140;24.762;2023-05-07T10:04:24;6.30;;;3.05;;
73869;SDS011;64924;42.140;24.762;2023-05-07T10:06:51;6.07;;;2.88;;
73869;SDS011;64924;42.140;24.762;2023-05-07T10:09:16;7.03;;;3.08;;
73869;SDS011;64924;42.140;24.762;2023-05-07T10:11:43;5.10;;;2.90;;
73869;SDS011;64924;42.140;24.762;2023-05-07T10:14:08;4.32;;;2.88;;
73869;SDS011;64924;42.140;24.762;2023-05-07T10:16:38;5.90;;;2.80;;
73869;SDS011;64924;42.140;24.762;2023-05-07T10:19:03;6.40;;;3.92;;
73869;SDS011;64924;42.140;24.762;2023-05-07T10:21:30;6.78;;;3.58;;
73869;SDS011;64924;42.140;24.762;2023-05-07T10:24:03;6.10;;;2.83;;
73869;SDS011;64924;42.140;24.762;2023-05-07T10:26:38;7.63;;;3.30;;
73869;SDS011;64924;42.140;24.762;2023-05-07T10:29:13;6.15;;;3.70;;
73869;SDS011;64924;42.140;24.762;2023-05-07T10:34:29;4.88;;;2.80;;
73869;SDS011;64924;42.140;24.762;2023-05-07T10:37:01;8.70;;;3.08;;
73869;SDS011;64924;42.140;24.762;2023-05-07T10:39:28;6.63;;;3.10;;
73869;SDS011;64924;42.140;24.762;2023-05-07T10:41:54;4.63;;;3.17;;
73869;SDS011;64924;42.140;24.762;2023-05-07T10:44:26;3.50;;;2.65;;
73869;SDS011;64924;42.140;24.762;2023-05-07T10:47:12;5.68;;;2.80;;
73869;SDS011;64924;42.140;24.762;2023-05-07T10:52:11;4.97;;;2.95;;
73869;SDS011;64924;42.140;24.762;2023-05-07T10:54:37;5.65;;;3.15;;
73869;SDS011;64924;42.140;24.762;2023-05-07T11:05:25;5.68;;;2.83;;
73869;SDS011;64924;42.140;24.762;2023-05-07T11:07:59;6.90;;;2.90;;
73869;SDS011;64924;42.140;24.762;2023-05-07T11:13:17;3.53;;;3.08;;
73869;SDS011;64924;42.140;24.762;2023-05-07T11:15:46;6.22;;;2.63;;
73869;SDS011;64924;42.140;24.762;2023-05-07T11:18:16;4.20;;;2.60;;
73869;SDS011;64924;42.140;24.762;2023-05-07T11:26:03;9.07;;;2.92;;
73869;SDS011;64924;42.140;24.762;2023-05-07T11:28:30;6.03;;;2.80;;
73869;SDS011;64924;42.140;24.762;2023-05-07T11:31:01;3.70;;;2.70;;
73869;SDS011;64924;42.140;24.762;2023-05-07T11:33:27;4.93;;;2.47;;
73869;SDS011;64924;42.140;24.762;2023-05-07T11:35:53;5.40;;;2.95;;
73869;SDS011;64924;42.140;24.762;2023-05-07T11:38:19;6.40;;;2.50;;
73869;SDS011;64924;42.140;24.762;2023-05-07T11:40:49;5.00;;;2.67;;
73869;SDS011;64924;42.140;24.762;2023-05-07T11:43:18;5.47;;;3.20;;
73869;SDS011;64924;42.140;24.762;2023-05-07T11:45:47;5.97;;;2.90;;
73869;SDS011;64924;42.140;24.762;2023-05-07T11:48:14;4.93;;;3.20;;
73869;SDS011;64924;42.140;24.762;2023-05-07T11:50:53;3.83;;;2.60;;
73869;SDS011;64924;42.140;24.762;2023-05-07T11:53:25;3.80;;;2.80;;
73869;SDS011;64924;42.140;24.762;2023-05-07T11:55:52;5.22;;;3.10;;
73869;SDS011;64924;42.140;24.762;2023-05-07T11:58:22;4.25;;;2.72;;
73869;SDS011;64924;42.140;24.762;2023-05-07T12:00:49;3.58;;;2.67;;
73869;SDS011;64924;42.140;24.762;2023-05-07T12:03:18;6.40;;;3.03;;
73869;SDS011;64924;42.140;24.762;2023-05-07T12:05:45;5.82;;;2.88;;
73869;SDS011;64924;42.140;24.762;2023-05-07T12:08:14;6.43;;;3.15;;
73869;SDS011;64924;42.140;24.762;2023-05-07T12:10:41;5.63;;;2.80;;
73869;SDS011;64924;42.140;24.762;2023-05-07T12:15:42;6.88;;;3.40;;
73869;SDS011;64924;42.140;24.762;2023-05-07T12:18:08;4.15;;;2.90;;
73869;SDS011;64924;42.140;24.762;2023-05-07T12:20:34;11.32;;;5.22;;
73869;SDS011;64924;42.140;24.762;2023-05-07T12:23:01;6.72;;;2.65;;
73869;SDS011;64924;42.140;24.762;2023-05-07T12:25:30;5.25;;;3.00;;
73869;SDS011;64924;42.140;24.762;2023-05-07T12:28:05;3.10;;;2.70;;
73869;SDS011;64924;42.140;24.762;2023-05-07T12:30:38;4.80;;;2.67;;
73869;SDS011;64924;42.140;24.762;2023-05-07T12:33:05;5.82;;;2.83;;
73869;SDS011;64924;42.140;24.762;2023-05-07T12:35:31;4.38;;;2.90;;
73869;SDS011;64924;42.140;24.762;2023-05-07T12:38:00;8.23;;;2.80;;
73869;SDS011;64924;42.140;24.762;2023-05-07T12:43:25;6.85;;;3.08;;
73869;SDS011;64924;42.140;24.762;2023-05-07T12:45:52;5.97;;;3.25;;
73869;SDS011;64924;42.140;24.762;2023-05-07T12:48:20;3.95;;;2.80;;
73869;SDS011;64924;42.140;24.762;2023-05-07T12:50:55;3.70;;;2.80;;
73869;SDS011;64924;42.140;24.762;2023-05-07T12:53:24;4.35;;;2.90;;
73869;SDS011;64924;42.140;24.762;2023-05-07T12:55:51;7.22;;;2.80;;
73869;SDS011;64924;42.140;24.762;2023-05-07T13:00:50;5.85;;;2.90;;
73869;SDS011;64924;42.140;24.762;2023-05-07T13:05:51;6.40;;;3.00;;
73869;SDS011;64924;42.140;24.762;2023-05-07T13:08:30;5.53;;;2.95;;
73869;SDS011;64924;42.140;24.762;2023-05-07T13:10:57;4.63;;;2.83;;
73869;SDS011;64924;42.140;24.762;2023-05-07T13:13:24;5.78;;;2.78;;
73869;SDS011;64924;42.140;24.762;2023-05-07T13:15:50;5.63;;;2.90;;
73869;SDS011;64924;42.140;24.762;2023-05-07T13:18:16;5.15;;;2.60;;
73869;SDS011;64924;42.140;24.762;2023-05-07T13:20:42;6.65;;;3.00;;
73869;SDS011;64924;42.140;24.762;2023-05-07T13:23:08;4.72;;;2.72;;
73869;SDS011;64924;42.140;24.762;2023-05-07T13:25:33;4.18;;;2.42;;
73869;SDS011;64924;42.140;24.762;2023-05-07T13:27:59;7.10;;;3.00;;
73869;SDS011;64924;42.140;24.762;2023-05-07T13:30:25;5.22;;;3.30;;
73869;SDS011;64924;42.140;24.762;2023-05-07T13:32:51;3.63;;;2.63;;
73869;SDS011;64924;42.140;24.762;2023-05-07T13:35:17;8.20;;;2.90;;
73869;SDS011;64924;42.140;24.762;2023-05-07T13:37:42;11.27;;;3.83;;
73869;SDS011;64924;42.140;24.762;2023-05-07T13:40:08;6.13;;;2.97;;
73869;SDS011;64924;42.140;24.762;2023-05-07T13:42:34;5.60;;;3.20;;
73869;SDS011;64924;42.140;24.762;2023-05-07T13:44:59;3.58;;;2.38;;
73869;SDS011;64924;42.140;24.762;2023-05-07T13:47:25;4.03;;;2.10;;
73869;SDS011;64924;42.140;24.762;2023-05-07T13:49:51;3.47;;;2.28;;
73869;SDS011;64924;42.140;24.762;2023-05-07T13:52:16;6.15;;;2.38;;
73869;SDS011;64924;42.140;24.762;2023-05-07T13:54:42;6.70;;;2.50;;
73869;SDS011;64924;42.140;24.762;2023-05-07T13:57:07;3.38;;;1.92;;
73869;SDS011;64924;42.140;24.762;2023-05-07T13:59:33;6.53;;;2.45;;
73869;SDS011;64924;42.140;24.762;2023-05-07T14:01:59;5.28;;;2.83;;
73869;SDS011;64924;42.140;24.762;2023-05-07T14:04:24;3.00;;;2.00;;
73869;SDS011;64924;42.140;24.762;2023-05-07T14:06:50;8.95;;;4.18;;
73869;SDS011;64924;42.140;24.762;2023-05-07T14:09:16;4.30;;;2.30;;
73869;SDS011;64924;42.140;24.762;2023-05-07T14:11:42;6.82;;;2.45;;
73869;SDS011;64924;42.140;24.762;2023-05-07T14:14:07;6.80;;;2.30;;
73869;SDS011;64924;42.140;24.762;2023-05-07T14:16:35;4.15;;;1.90;;
73869;SDS011;64924;42.140;24.762;2023-05-07T14:19:01;7.05;;;2.75;;
73869;SDS011;64924;42.140;24.762;2023-05-07T14:21:27;4.72;;;1.90;;
73869;SDS011;64924;42.140;24.762;2023-05-07T14:23:52;4.40;;;2.10;;
73869;SDS011;64924;42.140;24.762;2023-05-07T14:26:17;7.03;;;2.40;;
73869;SDS011;64924;42.140;24.762;2023-05-07T14:28:44;5.70;;;1.95;;
73869;SDS011;64924;42.140;24.762;2023-05-07T14:31:11;4.63;;;2.22;;
73869;SDS011;64924;42.140;24.762;2023-05-07T14:33:37;4.40;;;2.30;;
73869;SDS011;64924;42.140;24.762;2023-05-07T14:36:02;4.72;;;2.20;;
73869;SDS011;64924;42.140;24.762;2023-05-07T14:38:28;3.63;;;2.10;;
73869;SDS011;64924;42.140;24.762;2023-05-07T14:40:54;4.63;;;2.10;;
73869;SDS011;64924;42.140;24.762;2023-05-07T14:43:21;5.20;;;2.42;;
73869;SDS011;64924;42.140;24.762;2023-05-07T14:45:47;6.15;;;2.97;;
73869;SDS011;64924;42.140;24.762;2023-05-07T14:48:12;2.78;;;1.85;;
73869;SDS011;64924;42.140;24.762;2023-05-07T14:50:42;4.18;;;2.00;;
73869;SDS011;64924;42.140;24.762;2023-05-07T14:53:08;3.25;;;2.13;;
73869;SDS011;64924;42.140;24.762;2023-05-07T14:55:34;4.72;;;2.53;;
73869;SDS011;64924;42.140;24.762;2023-05-07T14:58:00;4.40;;;2.42;;
73869;SDS011;64924;42.140;24.762;2023-05-07T15:00:26;5.15;;;2.10;;